KF5WOE-13 Weather Reports


Display with metric or nautical units.
time (UTC)temp
F
wind
direction
speed
MPH
gust
MPH
rain 1hr
in
rain 24hr
in
rain mn
in
humidity
%
barometer
mb
20200705111147 77 50 1.0 1.0 0.00 0.00 0.00 84 1011.7
20200705110644 77 52 1.0 1.0 0.00 0.00 0.00 84 1011.6
20200705110145 77 48 2.0 2.0 0.00 0.00 0.00 84 1011.4
20200705105643 78 51 3.0 3.0 0.00 0.00 0.00 84 1011.5
20200705105141 78 66 0.0 0.0 0.00 0.00 0.00 84 1011.4
20200705104637 78 65 1.0 1.0 0.00 0.00 0.00 84 1011.4
20200705104136 78 61 1.0 1.0 0.00 0.00 0.00 84 1011.5
20200705103634 78 52 1.0 1.0 0.00 0.00 0.00 84 1011.6
20200705103131 78 56 1.0 1.0 0.00 0.00 0.00 85 1011.6
20200705102628 78 42 1.0 2.0 0.00 0.00 0.00 85 1011.4
20200705102124 78 48 2.0 2.0 0.00 0.00 0.00 86 1011.8
20200705101624 78 46 1.0 2.0 0.00 0.00 0.00 87 1011.6
20200705101123 78 40 1.0 1.0 0.00 0.00 0.00 87 1011.6
20200705100619 78 39 2.0 3.0 0.00 0.00 0.00 87 1011.7
20200705100115 78 24 2.0 2.0 0.00 0.00 0.00 87 1011.6
20200705095612 78 39 3.0 3.0 0.00 0.00 0.00 87 1011.6
20200705095108 78 19 4.0 5.0 0.00 0.00 0.00 87 1011.6
20200705094606 78 29 2.0 2.0 0.00 0.00 0.00 87 1011.6
20200705094102 78 24 2.0 2.0 0.00 0.00 0.00 87 1011.8
20200705093559 78 37 3.0 3.0 0.00 0.00 0.00 87 1011.5
20200705093100 78 59 2.0 3.0 0.00 0.00 0.00 87 1011.7
20200705092556 78 41 3.0 3.0 0.00 0.00 0.00 87 1011.5
20200705092050 78 55 1.0 2.0 0.00 0.00 0.00 87 1011.5
20200705091547 78 25 2.0 3.0 0.00 0.00 0.00 86 1011.8
20200705091043 78 53 1.0 1.0 0.00 0.00 0.00 86 1011.8
20200705090543 79 40 1.0 1.0 0.00 0.00 0.00 86 1011.7
20200705090041 79 53 1.0 1.0 0.00 0.00 0.00 86 1011.9
20200705085539 79 31 3.0 5.0 0.00 0.00 0.00 86 1011.6
20200705085038 79 42 1.0 2.0 0.00 0.00 0.00 85 1011.6
20200705084537 79 42 3.0 3.0 0.00 0.00 0.00 85 1011.5
20200705084035 79 40 1.0 2.0 0.00 0.00 0.00 85 1011.6
20200705083533 79 51 2.0 2.0 0.00 0.00 0.00 84 1011.3
20200705083032 79 26 2.0 2.0 0.00 0.00 0.00 84 1011.5
20200705082527 80 31 2.0 2.0 0.00 0.00 0.00 84 1011.4
20200705082027 80 20 1.0 2.0 0.00 0.00 0.00 84 1011.4
20200705081523 80 22 1.0 2.0 0.00 0.00 0.00 83 1011.7
20200705081019 80 6 2.0 2.0 0.00 0.00 0.00 83 1011.5
20200705080516 80 57 0.0 0.0 0.00 0.00 0.00 83 1011.5
20200705080016 80 55 1.0 2.0 0.00 0.00 0.00 83 1011.5
20200705075512 80 41 2.0 2.0 0.00 0.00 0.00 82 1011.8
20200705075009 80 58 1.0 1.0 0.00 0.00 0.00 82 1011.6
20200705074506 80 32 2.0 2.0 0.00 0.00 0.00 82 1011.6
20200705074001 80 33 2.0 3.0 0.00 0.00 0.00 81 1011.8
20200705073457 80 24 3.0 3.0 0.00 0.00 0.00 80 1011.9
20200705072952 80 56 1.0 1.0 0.00 0.00 0.00 80 1011.7
20200705072451 80 32 2.0 2.0 0.00 0.00 0.00 80 1012.1
20200705071946 80 50 1.0 1.0 0.00 0.00 0.00 79 1012.0
20200705071442 81 40 3.0 3.0 0.00 0.00 0.00 78 1011.9
20200705070939 81 43 1.0 2.0 0.00 0.00 0.00 78 1011.9
20200705070436 81 56 4.0 5.0 0.00 0.00 0.00 77 1011.7
20200705065936 81 36 2.0 3.0 0.00 0.00 0.00 76 1011.9
20200705065431 81 43 2.0 2.0 0.00 0.00 0.00 76 1012.0
20200705064927 81 42 1.0 1.0 0.00 0.00 0.00 74 1011.9
20200705064423 82 46 3.0 3.0 0.00 0.00 0.00 73 1011.9
20200705063920 82 37 2.0 3.0 0.00 0.00 0.00 71 1011.9
20200705063418 82 22 5.0 7.0 0.00 0.00 0.00 71 1011.9
20200705062914 83 304 1.0 1.0 0.00 0.00 0.00 69 1011.9
20200705062413 83 314 2.0 2.0 0.00 0.00 0.00 67 1011.7
20200705061909 83 31 2.0 2.0 0.00 0.00 0.00 66 1011.9
20200705061407 84 22 3.0 3.0 0.00 0.00 0.00 65 1011.9
20200705060902 84 20 5.0 6.0 0.00 0.00 0.00 65 1012.0
20200705060400 84 43 1.0 1.0 0.00 0.00 0.00 65 1012.2
20200705055856 84 41 2.0 2.0 0.00 0.00 0.00 65 1012.1
20200705055351 83 60 1.0 1.0 0.00 0.00 0.00 66 1012.2
20200705054850 83 102 0.0 1.0 0.00 0.00 0.00 66 1012.1
20200705054345 83 36 3.0 5.0 0.00 0.00 0.00 65 1012.4
20200705053841 83 36 2.0 2.0 0.00 0.00 0.00 66 1012.2
20200705053340 84 32 3.0 3.0 0.00 0.00 0.00 65 1012.0
20200705052835 84 33 3.0 3.0 0.00 0.00 0.00 65 1012.2
20200705052333 84 45 3.0 3.0 0.00 0.00 0.00 65 1012.2
20200705051831 84 40 3.0 3.0 0.00 0.00 0.00 65 1012.2
20200705051324 84 49 3.0 3.0 0.00 0.00 0.00 65 1012.1
20200705050821 84 69 3.0 5.0 0.00 0.00 0.00 65 1012.2
20200705050319 84 45 3.0 5.0 0.00 0.00 0.00 65 1012.2
20200705045816 83 65 2.0 3.0 0.00 0.00 0.00 66 1012.5
20200705045314 84 72 2.0 2.0 0.00 0.00 0.00 65 1012.3
20200705044809 84 60 2.0 2.0 0.00 0.00 0.00 65 1012.4
20200705044306 84 70 0.0 1.0 0.00 0.00 0.00 64 1012.3
20200705043803 84 81 0.0 1.0 0.00 0.00 0.00 65 1012.4
20200705043303 84 57 2.0 2.0 0.00 0.00 0.00 65 1012.5
20200705042759 84 62 1.0 2.0 0.00 0.00 0.00 64 1012.6
20200705042254 84 63 1.0 1.0 0.00 0.00 0.00 64 1012.4
20200705041751 84 51 2.0 2.0 0.00 0.00 0.00 64 1012.7
20200705041249 84 72 1.0 2.0 0.00 0.00 0.00 64 1012.5
20200705040745 84 67 2.0 2.0 0.00 0.00 0.00 63 1012.8
20200705040244 84 41 1.0 2.0 0.00 0.00 0.00 64 1012.9
20200705035739 84 53 1.0 2.0 0.00 0.00 0.00 64 1012.7
20200705035236 84 51 1.0 1.0 0.00 0.00 0.00 64 1012.8
20200705034730 85 70 0.0 1.0 0.00 0.00 0.00 64 1012.8
20200705034225 85 50 1.0 1.0 0.00 0.00 0.00 65 1012.5
20200705033723 85 47 1.0 2.0 0.00 0.00 0.00 65 1012.5
20200705033222 85 45 1.0 1.0 0.00 0.00 0.00 65 1012.8
20200705032717 85 48 1.0 2.0 0.00 0.00 0.00 66 1012.7
20200705032213 85 67 0.0 1.0 0.00 0.00 0.00 66 1012.7
20200705031708 85 71 0.0 1.0 0.00 0.00 0.00 66 1012.5
20200705031204 85 91 1.0 1.0 0.00 0.00 0.00 67 1012.7
20200705030701 85 75 0.0 0.0 0.00 0.00 0.00 67 1012.9
20200705030156 85 63 1.0 1.0 0.00 0.00 0.00 67 1013.0
20200705025658 85 54 1.0 2.0 0.00 0.00 0.00 68 1013.0
20200705025152 85 45 2.0 2.0 0.00 0.00 0.00 67 1012.9
20200705024655 86 42 1.0 1.0 0.00 0.00 0.00 67 1013.0
20200705024151 86 41 1.0 1.0 0.00 0.00 0.00 66 1012.6
20200705023648 86 42 1.0 1.0 0.00 0.00 0.00 65 1012.7
20200705023144 87 42 0.0 0.0 0.00 0.00 0.00 64 1012.6
20200705022640 87 45 1.0 1.0 0.00 0.00 0.00 64 1012.7
20200705022138 87 47 0.0 1.0 0.00 0.00 0.00 64 1012.6
20200705021635 87 50 0.0 1.0 0.00 0.00 0.00 64 1012.8
20200705021132 87 52 0.0 0.0 0.00 0.00 0.00 63 1012.4
20200705020627 87 58 1.0 1.0 0.00 0.00 0.00 63 1012.8
20200705020124 87 89 0.0 1.0 0.00 0.00 0.00 63 1012.4
20200705015621 88 97 0.0 0.0 0.00 0.00 0.00 62 1012.4
20200705015117 88 99 0.0 0.0 0.00 0.00 0.00 62 1012.0
20200705014615 88 105 0.0 0.0 0.00 0.00 0.00 61 1012.1
20200705014110 88 95 0.0 0.0 0.00 0.00 0.00 62 1012.2
20200705013607 89 89 0.0 0.0 0.00 0.00 0.00 61 1011.9
20200705013103 89 91 1.0 1.0 0.00 0.00 0.00 60 1011.9
20200705012602 89 112 2.0 2.0 0.00 0.00 0.00 59 1011.9
20200705012056 89 105 0.0 1.0 0.00 0.00 0.00 60 1011.7
20200705011549 91 104 0.0 0.0 0.00 0.00 0.00 58 1012.0
20200705011046 91 109 2.0 2.0 0.00 0.00 0.00 55 1011.9
20200705010541 91 105 1.0 1.0 0.00 0.00 0.00 56 1011.7
20200705010039 92 127 2.0 2.0 0.00 0.00 0.00 54 1011.7
20200705005536 92 137 3.0 3.0 0.00 0.00 0.00 52 1011.8
20200705005036 93 130 2.0 2.0 0.00 0.00 0.00 53 1011.8
20200705004532 93 131 3.0 3.0 0.00 0.00 0.00 52 1012.0
20200705004029 94 149 3.0 3.0 0.00 0.00 0.00 51 1011.8
20200705003525 94 154 2.0 2.0 0.00 0.00 0.00 50 1011.7
20200705003025 95 132 4.0 5.0 0.00 0.00 0.00 49 1011.6
20200705002520 95 123 3.0 3.0 0.00 0.00 0.00 49 1011.7
20200705002021 95 158 4.0 5.0 0.00 0.00 0.00 49 1011.5
20200705001518 95 193 3.0 3.0 0.00 0.00 0.00 48 1011.6
20200705001013 95 154 5.0 7.0 0.00 0.00 0.00 46 1011.4
20200705000511 96 158 3.0 3.0 0.00 0.00 0.00 46 1011.4
20200705000011 96 160 5.0 6.0 0.00 0.00 0.00 45 1011.3
20200704235521 96 141 4.0 6.0 0.00 0.00 0.00 44 1011.4
20200704235029 96 109 3.0 3.0 0.00 0.00 0.00 45 1011.8
20200704234503 96 155 4.0 5.0 0.00 0.00 0.00 44 1011.5
20200704234006 97 163 5.0 6.0 0.00 0.00 0.00 43 1011.5
20200704233507 96 138 3.0 3.0 0.00 0.00 0.00 43 1011.8
20200704232958 97 150 3.0 5.0 0.00 0.00 0.00 43 1011.8
20200704232457 97 118 3.0 3.0 0.00 0.00 0.00 42 1011.8
20200704231952 98 194 6.0 7.0 0.00 0.00 0.00 41 1011.7
20200704231447 97 166 3.0 5.0 0.00 0.00 0.00 41 1011.9
20200704230944 97 147 4.0 5.0 0.00 0.00 0.00 43 1011.9
20200704230438 97 173 4.0 5.0 0.00 0.00 0.00 42 1011.9
20200704225940 98 135 3.0 3.0 0.00 0.00 0.00 42 1012.0
20200704225434 98 215 2.0 2.0 0.00 0.00 0.00 39 1012.0
20200704224929 97 158 7.0 7.0 0.00 0.00 0.00 40 1011.9
20200704224429 97 141 3.0 3.0 0.00 0.00 0.00 41 1012.0
20200704223924 97 134 2.0 2.0 0.00 0.00 0.00 41 1012.3
20200704223421 97 140 5.0 6.0 0.00 0.00 0.00 43 1012.2
20200704222919 97 130 7.0 8.0 0.00 0.00 0.00 42 1012.3
20200704222416 98 109 7.0 9.0 0.00 0.00 0.00 42 1012.3
20200704221912 98 145 3.0 5.0 0.00 0.00 0.00 40 1012.2
20200704221409 97 124 7.0 7.0 0.00 0.00 0.00 43 1012.3
20200704220906 96 98 5.0 6.0 0.00 0.00 0.00 46 1012.5
20200704220402 96 68 4.0 5.0 0.00 0.00 0.00 46 1012.5
20200704215856 95 57 3.0 5.0 0.00 0.00 0.00 47 1012.5
20200704215353 96 71 6.0 9.0 0.00 0.00 0.00 46 1012.6
20200704214850 95 38 3.0 3.0 0.00 0.00 0.00 47 1012.5
20200704214346 96 79 7.0 9.0 0.00 0.00 0.00 46 1012.5
20200704213841 96 151 1.0 1.0 0.00 0.00 0.00 47 1012.9
20200704213338 95 109 5.0 6.0 0.00 0.00 0.00 47 1012.8
20200704212835 96 62 2.0 2.0 0.00 0.00 0.00 45 1012.8
20200704212335 96 78 5.0 6.0 0.00 0.00 0.00 46 1013.0
20200704211833 98 86 3.0 5.0 0.00 0.00 0.00 44 1013.2
20200704211328 97 116 4.0 6.0 0.00 0.00 0.00 44 1013.0
20200704210825 97 68 3.0 3.0 0.00 0.00 0.00 44 1013.1
20200704210323 95 45 3.0 3.0 0.00 0.00 0.00 47 1013.3
20200704205820 97 46 5.0 6.0 0.00 0.00 0.00 46 1013.3
20200704204809 97 117 6.0 7.0 0.00 0.00 0.00 44 1013.8
20200704204310 96 129 4.0 6.0 0.00 0.00 0.00 46 1013.7
20200704203807 95 25 3.0 3.0 0.00 0.00 0.00 50 1013.8
20200704203307 95 91 4.0 5.0 0.00 0.00 0.00 47 1013.8
20200704202806 95 57 6.0 7.0 0.00 0.00 0.00 46 1013.9
20200704202305 95 45 6.0 8.0 0.00 0.00 0.00 46 1014.0
20200704201800 95 119 8.0 10.0 0.00 0.00 0.00 46 1014.0
20200704201257 95 37 5.0 7.0 0.00 0.00 0.00 45 1013.9
20200704200754 96 231 4.0 5.0 0.00 0.00 0.00 44 1014.0
20200704200253 95 124 5.0 6.0 0.00 0.00 0.00 45 1014.0
20200704195752 96 91 3.0 3.0 0.00 0.00 0.00 46 1014.0
20200704195250 95 147 3.0 5.0 0.00 0.00 0.00 46 1014.4
20200704194748 97 126 7.0 8.0 0.00 0.00 0.00 45 1014.2
20200704194245 97 119 6.0 8.0 0.00 0.00 0.00 45 1014.2
20200704193742 95 347 3.0 3.0 0.00 0.00 0.00 46 1014.1
20200704193240 96 28 9.0 11.0 0.00 0.00 0.00 45 1014.4
20200704192736 98 61 3.0 3.0 0.00 0.00 0.00 46 1014.4
20200704192235 97 268 1.0 1.0 0.00 0.00 0.00 42 1014.4
20200704191731 95 149 2.0 2.0 0.00 0.00 0.00 42 1014.7
20200704191230 95 99 3.0 3.0 0.00 0.00 0.00 45 1014.6
20200704190729 95 55 3.0 5.0 0.00 0.00 0.00 48 1014.8
20200704190224 97 62 3.0 3.0 0.00 0.00 0.00 43 1014.8
20200704185720 97 135 3.0 3.0 0.00 0.00 0.00 43 1014.9
20200704185217 97 209 2.0 2.0 0.00 0.00 0.00 42 1014.8
20200704184713 96 198 2.0 2.0 0.00 0.00 0.00 43 1015.1
20200704184209 96 262 6.0 7.0 0.00 0.00 0.00 44 1015.0
20200704183708 95 344 3.0 5.0 0.00 0.00 0.00 45 1015.2
20200704183201 95 21 5.0 6.0 0.00 0.00 0.00 48 1015.2
20200704182659 94 320 1.0 1.0 0.00 0.00 0.00 47 1015.0
20200704182159 94 325 8.0 10.0 0.00 0.00 0.00 46 1015.1
20200704181655 94 327 8.0 9.0 0.00 0.00 0.00 46 1015.3
20200704181149 95 304 8.0 9.0 0.00 0.00 0.00 46 1015.4
20200704180648 94 269 7.0 7.0 0.00 0.00 0.00 46 1015.4
20200704180145 95 325 8.0 9.0 0.00 0.00 0.00 46 1015.4
20200704175644 94 294 7.0 7.0 0.00 0.00 0.00 47 1015.2
20200704175143 94 183 3.0 3.0 0.00 0.00 0.00 50 1015.6
20200704174642 93 151 0.0 0.0 0.00 0.00 0.00 49 1015.4
20200704174138 95 257 6.0 8.0 0.00 0.00 0.00 49 1015.4
20200704173631 93 174 4.0 6.0 0.00 0.00 0.00 50 1015.5
20200704173126 93 241 5.0 7.0 0.00 0.00 0.00 51 1015.6
20200704172624 93 232 5.0 7.0 0.00 0.00 0.00 53 1015.6
20200704172116 92 223 4.0 6.0 0.00 0.00 0.00 52 1015.8
20200704171612 92 190 3.0 5.0 0.00 0.00 0.00 52 1015.7
20200704171111 92 218 3.0 5.0 0.00 0.00 0.00 54 1015.7
20200704170606 91 221 3.0 5.0 0.00 0.00 0.00 54 1015.7
20200704170108 91 254 7.0 9.0 0.00 0.00 0.00 56 1015.8
20200704165602 90 244 3.0 3.0 0.00 0.00 0.00 55 1015.8
20200704165059 91 228 2.0 2.0 0.00 0.00 0.00 54 1015.8
20200704164555 90 276 4.0 5.0 0.00 0.00 0.00 55 1015.9
20200704164052 89 212 4.0 5.0 0.00 0.00 0.00 56 1015.9
20200704163549 90 249 3.0 3.0 0.00 0.00 0.00 57 1015.7
20200704163049 89 188 3.0 3.0 0.00 0.00 0.00 57 1015.9
20200704162545 88 277 2.0 3.0 0.00 0.00 0.00 59 1015.9
20200704162042 88 269 8.0 9.0 0.00 0.00 0.00 58 1015.8
20200704161539 88 240 3.0 3.0 0.00 0.00 0.00 59 1015.7
20200704161037 88 195 5.0 6.0 0.00 0.00 0.00 59 1015.7
20200704160536 88 117 3.0 3.0 0.00 0.00 0.00 61 1015.7
20200704160034 87 279 4.0 6.0 0.00 0.00 0.00 60 1015.6
20200704155532 87 266 2.0 2.0 0.00 0.00 0.00 61 1015.9
20200704155027 86 201 3.0 3.0 0.00 0.00 0.00 61 1016.0
20200704154525 86 282 5.0 6.0 0.00 0.00 0.00 62 1015.5
20200704154023 86 208 3.0 3.0 0.00 0.00 0.00 64 1015.9
20200704153523 85 160 5.0 6.0 0.00 0.00 0.00 63 1015.8
20200704153017 85 205 3.0 3.0 0.00 0.00 0.00 64 1016.1
20200704152601 85 223 4.0 5.0 0.00 0.00 0.00 64 1015.9
20200704152017 84 205 3.0 6.0 0.00 0.00 0.00 64 1015.9
20200704151516 84 226 3.0 6.0 0.00 0.00 0.00 65 1016.0
20200704151017 84 231 4.0 5.0 0.00 0.00 0.00 65 1015.9
20200704150515 83 247 4.0 5.0 0.00 0.00 0.00 66 1016.0
20200704150018 83 204 5.0 9.0 0.00 0.00 0.00 66 1016.0
20200704145511 83 170 5.0 6.0 0.00 0.00 0.00 66 1015.9
20200704145004 82 221 4.0 5.0 0.00 0.00 0.00 69 1015.9
20200704144502 82 220 6.0 7.0 0.00 0.00 0.00 68 1015.7
20200704144003 82 203 6.0 7.0 0.00 0.00 0.00 68 1015.9
20200704143501 82 196 3.0 3.0 0.00 0.00 0.00 69 1015.8
20200704142957 82 176 1.0 2.0 0.00 0.00 0.00 69 1015.8
20200704142501 80 160 4.0 5.0 0.00 0.00 0.00 72 1015.6
20200704141955 81 195 4.0 6.0 0.00 0.00 0.00 71 1015.8
20200704141451 80 185 2.0 3.0 0.00 0.00 0.00 73 1015.7
20200704140947 79 182 4.0 6.0 0.00 0.00 0.00 74 1015.7
20200704140446 79 182 5.0 6.0 0.00 0.00 0.00 75 1015.8
20200704135942 79 205 5.0 6.0 0.00 0.00 0.00 75 1015.5
20200704135437 79 159 4.0 5.0 0.00 0.00 0.00 75 1015.7
20200704134933 78 138 3.0 3.0 0.00 0.00 0.00 77 1015.8
20200704134431 78 159 4.0 6.0 0.00 0.00 0.00 77 1015.8
20200704133927 77 139 3.0 3.0 0.00 0.00 0.00 78 1015.8
20200704133421 77 150 3.0 3.0 0.00 0.00 0.00 80 1015.7
20200704132919 77 147 3.0 5.0 0.00 0.00 0.00 79 1015.5
20200704132418 77 175 5.0 7.0 0.00 0.00 0.00 80 1015.6
20200704131916 77 130 3.0 5.0 0.00 0.00 0.00 79 1015.5
20200704131414 77 141 2.0 2.0 0.00 0.00 0.00 80 1015.4
20200704130911 76 180 4.0 5.0 0.00 0.00 0.00 81 1015.6
20200704130410 76 132 1.0 1.0 0.00 0.00 0.00 82 1015.3
20200704125905 76 149 4.0 5.0 0.00 0.00 0.00 82 1015.4
20200704125403 76 132 5.0 5.0 0.00 0.00 0.00 82 1015.3
20200704124858 75 152 1.0 2.0 0.00 0.00 0.00 84 1015.2
20200704124358 74 152 5.0 6.0 0.00 0.00 0.00 84 1015.1
20200704123852 74 135 3.0 5.0 0.00 0.00 0.00 85 1015.1
20200704123351 74 148 2.0 2.0 0.00 0.00 0.00 85 1015.1
20200704122849 74 109 3.0 3.0 0.00 0.00 0.00 85 1014.9
20200704122345 73 120 2.0 2.0 0.00 0.00 0.00 86 1015.1
20200704121843 73 138 2.0 2.0 0.00 0.00 0.00 87 1014.9
20200704121339 73 133 1.0 2.0 0.00 0.00 0.00 87 1015.1
20200704120838 72 128 2.0 2.0 0.00 0.00 0.00 88 1014.7
20200704120337 72 135 2.0 2.0 0.00 0.00 0.00 88 1014.9
20200704115831 72 114 1.0 1.0 0.00 0.00 0.00 89 1015.0
20200704115331 72 146 1.0 1.0 0.00 0.00 0.00 89 1014.9
20200704114826 72 150 2.0 2.0 0.00 0.00 0.00 88 1014.8
20200704114327 72 145 3.0 5.0 0.00 0.00 0.00 88 1014.6
20200704113822 72 151 3.0 3.0 0.00 0.00 0.00 88 1014.5
20200704113319 72 145 3.0 3.0 0.00 0.00 0.00 88 1014.7
20200704112817 72 137 3.0 3.0 0.00 0.00 0.00 88 1014.4
20200704112313 72 137 2.0 2.0 0.00 0.00 0.00 87 1014.6
20200704111812 72 119 2.0 2.0 0.00 0.00 0.00 87 1014.5
20200704111423 72 119 3.0 3.0 0.00 0.00 0.00 87 1014.5